createdAt,value
2017-10-28T00:00:56.865Z,2.40
2017-10-28T00:03:23.181Z,2.60
2017-10-28T00:05:49.488Z,2.67
2017-10-28T00:08:16.540Z,2.15
2017-10-28T00:10:43.665Z,2.78
2017-10-28T00:13:09.970Z,2.80
2017-10-28T00:15:37.112Z,3.40
2017-10-28T00:18:03.422Z,2.97
2017-10-28T00:20:29.707Z,2.85
2017-10-28T00:22:56.014Z,3.10
2017-10-28T00:25:23.598Z,3.60
2017-10-28T00:27:49.896Z,3.58
2017-10-28T00:30:22.400Z,4.30
2017-10-28T00:32:54.789Z,3.80
2017-10-28T00:48:44.610Z,5.03
2017-10-28T00:51:10.718Z,4.97
2017-10-28T00:53:36.862Z,4.95
2017-10-28T00:56:02.984Z,5.25
2017-10-28T00:58:29.109Z,7.15
2017-10-28T01:00:55.794Z,5.70
2017-10-28T01:03:21.897Z,5.35
2017-10-28T01:05:48.224Z,5.40
2017-10-28T01:08:14.528Z,5.95
2017-10-28T01:10:40.937Z,5.93
2017-10-28T01:13:08.902Z,6.20
2017-10-28T01:15:35.335Z,5.70
2017-10-28T01:18:01.785Z,5.70
2017-10-28T01:20:28.733Z,5.22
2017-10-28T01:22:55.062Z,5.80
2017-10-28T01:25:22.151Z,5.47
2017-10-28T01:27:48.465Z,4.87
2017-10-28T01:30:14.748Z,5.32
2017-10-28T01:32:41.800Z,4.80
2017-10-28T01:35:08.848Z,5.12
2017-10-28T01:37:35.162Z,4.90
2017-10-28T01:40:01.506Z,4.87
2017-10-28T01:42:27.872Z,4.18
2017-10-28T01:44:54.208Z,5.15
2017-10-28T01:47:21.811Z,5.05
2017-10-28T01:49:47.916Z,4.93
2017-10-28T01:52:14.274Z,4.87
2017-10-28T01:54:40.583Z,4.35
2017-10-28T01:57:06.860Z,5.30
2017-10-28T01:59:33.906Z,4.45
2017-10-28T02:02:00.011Z,4.22
2017-10-28T02:04:29.185Z,3.90
2017-10-28T02:06:55.322Z,3.42
2017-10-28T02:09:21.428Z,3.75
2017-10-28T02:11:47.536Z,3.72
2017-10-28T02:14:14.396Z,3.97
2017-10-28T02:16:41.257Z,3.22
2017-10-28T02:19:08.121Z,3.65
2017-10-28T02:21:34.249Z,3.33
2017-10-28T02:24:00.353Z,4.18
2017-10-28T02:26:26.533Z,3.85
2017-10-28T02:28:52.634Z,3.25
2017-10-28T02:31:19.204Z,3.42
2017-10-28T02:33:45.314Z,4.00
2017-10-28T02:36:11.448Z,3.20
2017-10-28T02:38:37.550Z,3.50
2017-10-28T02:41:04.597Z,3.05
2017-10-28T02:43:30.813Z,3.60
2017-10-28T02:45:56.895Z,3.97
2017-10-28T02:48:23.757Z,4.32
2017-10-28T02:50:55.089Z,4.10
2017-10-28T02:53:21.170Z,3.70
2017-10-28T02:55:48.000Z,4.30
2017-10-28T02:58:17.346Z,3.75
2017-10-28T03:00:44.303Z,4.35
2017-10-28T03:03:10.457Z,4.55
2017-10-28T03:05:36.544Z,4.85
2017-10-28T03:08:02.664Z,3.33
2017-10-28T03:10:29.557Z,3.87
2017-10-28T03:12:55.680Z,4.28
2017-10-28T03:15:21.795Z,3.92
2017-10-28T03:17:48.015Z,3.90
2017-10-28T03:20:14.142Z,3.67
2017-10-28T03:22:40.257Z,3.70
2017-10-28T03:25:06.386Z,3.80
2017-10-28T03:27:32.521Z,3.70
2017-10-28T03:29:58.632Z,3.95
2017-10-28T03:32:24.728Z,3.72
2017-10-28T03:34:50.825Z,3.58
2017-10-28T03:37:16.925Z,3.60
2017-10-28T03:39:43.033Z,3.72
2017-10-28T03:42:09.321Z,3.10
2017-10-28T03:44:35.433Z,3.58
2017-10-28T03:47:01.508Z,3.83
2017-10-28T03:49:27.653Z,4.20
2017-10-28T03:51:54.030Z,4.05
2017-10-28T03:54:21.084Z,4.68
2017-10-28T03:56:47.384Z,5.30
2017-10-28T03:59:13.682Z,4.15
2017-10-28T04:01:40.701Z,5.00
2017-10-28T04:04:10.060Z,5.07
2017-10-28T04:06:36.156Z,4.87
2017-10-28T04:09:02.254Z,5.30
2017-10-28T04:11:28.369Z,5.25
2017-10-28T04:13:55.621Z,5.32
2017-10-28T04:16:22.456Z,4.97
2017-10-28T04:18:48.529Z,4.75
2017-10-28T04:21:14.806Z,5.10
2017-10-28T04:23:41.840Z,5.60
2017-10-28T04:26:07.941Z,4.40
2017-10-28T04:28:34.181Z,6.00
2017-10-28T04:31:04.502Z,5.30
2017-10-28T04:33:30.600Z,4.30
2017-10-28T04:35:56.702Z,5.30
2017-10-28T04:38:23.556Z,4.22
2017-10-28T04:40:49.681Z,4.15
2017-10-28T04:43:15.790Z,4.40
2017-10-28T04:45:41.951Z,4.95
2017-10-28T04:48:08.046Z,4.85
2017-10-28T04:50:34.397Z,5.05
2017-10-28T04:53:00.701Z,4.30
2017-10-28T04:55:27.049Z,4.37
2017-10-28T04:57:53.356Z,5.95
2017-10-28T05:00:19.755Z,5.18
2017-10-28T05:02:46.083Z,4.80
2017-10-28T05:05:13.185Z,5.78
2017-10-28T05:07:39.503Z,5.30
2017-10-28T05:10:05.767Z,5.50
2017-10-28T05:12:32.795Z,5.30
2017-10-28T05:14:59.107Z,5.50
2017-10-28T05:17:25.441Z,5.30
2017-10-28T05:19:51.751Z,5.00
2017-10-28T05:22:18.057Z,6.20
2017-10-28T05:24:45.398Z,5.75
2017-10-28T05:27:12.461Z,6.30
2017-10-28T05:29:38.753Z,5.55
2017-10-28T05:32:05.777Z,6.32
2017-10-28T05:34:32.076Z,6.45
2017-10-28T05:37:02.921Z,6.25
2017-10-28T05:39:29.953Z,5.87
2017-10-28T05:41:56.037Z,6.57
2017-10-28T05:44:22.913Z,6.05
2017-10-28T05:46:49.040Z,6.65
2017-10-28T05:49:16.146Z,7.57
2017-10-28T05:51:42.251Z,6.40
2017-10-28T05:54:08.356Z,6.70
2017-10-28T05:56:34.476Z,8.02
2017-10-28T05:59:01.117Z,8.35
2017-10-28T06:01:27.966Z,7.87
2017-10-28T06:03:55.740Z,8.73
2017-10-28T06:06:21.833Z,9.55
2017-10-28T06:08:47.949Z,9.00
2017-10-28T06:11:14.187Z,9.70
2017-10-28T06:13:40.313Z,9.45
2017-10-28T06:16:07.025Z,10.65
2017-10-28T06:18:33.876Z,10.27
2017-10-28T06:21:00.729Z,9.77
2017-10-28T06:23:27.596Z,10.00
2017-10-28T06:25:54.452Z,10.45
2017-10-28T06:28:21.317Z,9.93
2017-10-28T06:30:48.181Z,9.77
2017-10-28T06:33:15.084Z,10.07
2017-10-28T06:35:41.460Z,10.20
2017-10-28T06:38:07.625Z,11.32
2017-10-28T06:40:33.761Z,11.30
2017-10-28T06:43:00.027Z,11.20
2017-10-28T06:45:26.191Z,10.50
2017-10-28T06:47:53.058Z,10.73
2017-10-28T06:50:19.234Z,10.95
2017-10-28T06:52:45.382Z,12.45
2017-10-28T06:55:11.497Z,11.70
2017-10-28T06:57:41.252Z,11.27
2017-10-28T07:00:07.431Z,9.95
2017-10-28T07:02:35.072Z,11.52
2017-10-28T07:05:01.921Z,12.82
2017-10-28T07:07:28.793Z,13.27
2017-10-28T07:09:55.649Z,12.55
2017-10-28T07:12:21.916Z,11.23
2017-10-28T07:14:48.046Z,12.10
2017-10-28T07:17:14.193Z,11.48
2017-10-28T07:19:41.061Z,11.07
2017-10-28T07:22:07.171Z,10.55
2017-10-28T07:24:36.271Z,10.75
2017-10-28T07:27:02.509Z,10.90
2017-10-28T07:29:28.630Z,10.38
2017-10-28T07:31:54.741Z,11.77
2017-10-28T07:34:20.833Z,9.85
2017-10-28T07:36:46.950Z,12.00
2017-10-28T07:39:13.100Z,11.25
2017-10-28T07:41:39.944Z,10.80
2017-10-28T07:44:06.072Z,9.93
2017-10-28T07:46:32.189Z,10.20
2017-10-28T07:48:58.320Z,10.90
2017-10-28T07:51:24.409Z,10.25
2017-10-28T07:53:50.512Z,10.63
2017-10-28T07:56:17.387Z,9.55
2017-10-28T07:58:43.523Z,9.65
2017-10-28T08:01:09.646Z,8.90
2017-10-28T08:03:41.988Z,9.38
2017-10-28T08:06:08.577Z,10.00
2017-10-28T08:08:34.957Z,8.75
2017-10-28T08:11:01.875Z,9.57
2017-10-28T08:13:27.964Z,8.90
2017-10-28T08:15:54.108Z,9.00
2017-10-28T08:18:20.453Z,9.27
2017-10-28T08:20:47.285Z,9.50
2017-10-28T08:23:13.392Z,9.52
2017-10-28T08:25:39.520Z,9.25
2017-10-28T08:28:05.617Z,10.35
2017-10-28T08:30:31.720Z,9.75
2017-10-28T08:32:57.810Z,9.43
2017-10-28T08:35:23.917Z,11.45
2017-10-28T08:37:50.094Z,10.23
2017-10-28T08:40:16.806Z,10.40
2017-10-28T08:42:42.956Z,10.80
2017-10-28T08:45:09.145Z,10.50
2017-10-28T08:47:35.261Z,10.50
2017-10-28T08:50:02.621Z,10.70
2017-10-28T08:52:28.740Z,11.38
2017-10-28T08:54:55.592Z,9.48
2017-10-28T08:57:22.444Z,10.75
2017-10-28T08:59:48.540Z,9.98
2017-10-28T09:02:14.689Z,12.07
2017-10-28T09:04:40.810Z,12.07
2017-10-28T09:07:06.946Z,12.23
2017-10-28T09:09:33.781Z,12.25
2017-10-28T09:11:59.891Z,12.65
2017-10-28T09:14:26.000Z,12.27
2017-10-28T09:16:52.109Z,12.82
2017-10-28T09:19:18.236Z,11.68
2017-10-28T09:21:44.376Z,11.45
2017-10-28T09:24:10.516Z,11.60
2017-10-28T09:26:36.644Z,12.50
2017-10-28T09:29:02.809Z,12.05
2017-10-28T09:31:28.898Z,13.15
2017-10-28T09:33:55.756Z,12.02
2017-10-28T09:36:21.848Z,12.65
2017-10-28T09:38:48.170Z,11.95
2017-10-28T09:41:14.300Z,11.55
2017-10-28T09:43:40.402Z,12.55
2017-10-28T09:46:06.688Z,11.85
2017-10-28T09:48:32.832Z,10.90
2017-10-28T09:51:00.101Z,11.20
2017-10-28T09:53:26.982Z,12.18
2017-10-28T09:55:53.133Z,11.55
2017-10-28T09:58:19.258Z,13.95
2017-10-28T10:00:46.148Z,11.70
2017-10-28T10:03:13.020Z,12.13
2017-10-28T10:05:39.156Z,11.82
2017-10-28T10:08:05.289Z,11.65
2017-10-28T10:10:38.319Z,12.27
2017-10-28T10:13:04.509Z,11.70
2017-10-28T10:15:32.328Z,11.12
2017-10-28T10:17:58.422Z,10.27
2017-10-28T10:20:24.533Z,11.20
2017-10-28T10:22:51.368Z,10.43
2017-10-28T10:25:17.479Z,10.70
2017-10-28T10:27:43.614Z,10.52
2017-10-28T10:30:09.716Z,10.73
2017-10-28T10:32:35.821Z,10.75
2017-10-28T10:35:01.951Z,11.30
2017-10-28T10:37:28.074Z,12.30
2017-10-28T10:39:54.534Z,11.88
2017-10-28T10:42:20.701Z,10.05
2017-10-28T10:44:46.810Z,11.68
2017-10-28T10:47:12.956Z,11.55
2017-10-28T10:49:39.065Z,11.18
2017-10-28T10:52:05.185Z,10.88
2017-10-28T10:54:32.066Z,11.48
2017-10-28T10:56:58.914Z,10.05
2017-10-28T10:59:25.010Z,11.30
2017-10-28T11:01:51.099Z,11.63
2017-10-28T11:04:17.201Z,10.43
2017-10-28T11:06:43.338Z,11.18
2017-10-28T11:09:10.208Z,9.65
2017-10-28T11:11:36.297Z,10.23
2017-10-28T11:14:05.637Z,10.07
2017-10-28T11:16:31.753Z,12.75
2017-10-28T11:18:57.863Z,9.65
2017-10-28T11:21:28.202Z,9.48
2017-10-28T11:23:55.074Z,9.75
2017-10-28T11:26:23.537Z,11.10
2017-10-28T11:28:49.758Z,10.63
2017-10-28T11:31:18.879Z,10.07
2017-10-28T11:33:45.001Z,8.93
2017-10-28T11:36:11.193Z,9.45
2017-10-28T11:38:37.345Z,9.45
2017-10-28T11:41:03.444Z,10.48
2017-10-28T11:43:29.543Z,10.13
2017-10-28T11:45:55.638Z,9.45
2017-10-28T11:48:21.757Z,9.40
2017-10-28T11:50:47.862Z,10.95
2017-10-28T11:53:14.001Z,10.77
2017-10-28T11:55:40.199Z,9.63
2017-10-28T11:58:06.297Z,10.80
2017-10-28T12:00:32.400Z,10.50
2017-10-28T12:02:59.246Z,10.50
2017-10-28T12:05:25.350Z,10.90
2017-10-28T12:07:52.452Z,11.00
2017-10-28T12:10:18.568Z,11.40
2017-10-28T12:12:45.453Z,11.57
2017-10-28T12:15:11.571Z,11.15
2017-10-28T12:17:37.664Z,11.60
2017-10-28T12:20:04.512Z,11.43
2017-10-28T12:22:36.757Z,10.57
2017-10-28T12:25:02.868Z,11.15
2017-10-28T12:27:28.986Z,10.90
2017-10-28T12:29:55.158Z,10.27
2017-10-28T12:32:21.494Z,10.90
2017-10-28T12:34:47.601Z,11.77
2017-10-28T12:37:13.764Z,10.75
2017-10-28T12:39:43.420Z,9.40
2017-10-28T12:42:09.646Z,10.65
2017-10-28T12:44:35.776Z,10.43
2017-10-28T12:47:02.639Z,11.20
2017-10-28T12:49:28.752Z,11.30
2017-10-28T12:51:54.905Z,11.55
2017-10-28T12:54:21.249Z,11.23
2017-10-28T12:56:57.210Z,11.23
2017-10-28T12:59:23.496Z,11.10
2017-10-28T13:01:49.699Z,11.93
2017-10-28T13:04:15.797Z,11.45
2017-10-28T13:06:41.952Z,11.25
2017-10-28T13:09:08.073Z,11.98
2017-10-28T13:11:34.150Z,10.82
2017-10-28T13:14:04.002Z,10.52
2017-10-28T13:16:30.085Z,11.23
2017-10-28T13:18:56.177Z,11.60
2017-10-28T13:21:23.014Z,10.50
2017-10-28T13:23:49.077Z,11.65
2017-10-28T13:26:15.230Z,11.60
2017-10-28T13:28:41.338Z,12.20
2017-10-28T13:31:13.412Z,11.75
2017-10-28T13:33:39.585Z,11.48
2017-10-28T13:36:05.710Z,11.50
2017-10-28T13:38:31.787Z,12.85
2017-10-28T13:40:57.968Z,12.90
2017-10-28T13:43:24.052Z,11.35
2017-10-28T13:45:50.901Z,10.70
2017-10-28T13:48:16.993Z,10.45
2017-10-28T13:50:47.084Z,10.48
2017-10-28T13:53:13.185Z,10.75
2017-10-28T13:55:40.038Z,10.85
2017-10-28T13:58:06.166Z,11.20
2017-10-28T14:00:32.278Z,12.20
2017-10-28T14:02:58.384Z,11.77
2017-10-28T14:05:24.481Z,12.32
2017-10-28T14:07:51.373Z,11.45
2017-10-28T14:10:24.007Z,11.43
2017-10-28T14:12:50.245Z,11.45
2017-10-28T14:15:16.362Z,10.57
2017-10-28T14:17:43.215Z,10.98
2017-10-28T14:20:12.585Z,10.65
2017-10-28T14:22:39.501Z,10.80
2017-10-28T14:25:11.265Z,11.70
2017-10-28T14:27:37.982Z,11.63
2017-10-28T14:30:04.392Z,11.80
2017-10-28T14:32:31.906Z,11.98
2017-10-28T14:34:58.737Z,12.60
2017-10-28T14:37:26.723Z,12.50
2017-10-28T14:42:28.639Z,13.27
2017-10-28T14:44:55.081Z,10.43
2017-10-28T14:47:22.452Z,11.70
2017-10-28T14:49:49.764Z,11.18
2017-10-28T14:52:16.704Z,12.35
2017-10-28T14:54:43.386Z,29.25
2017-10-28T14:57:14.191Z,27.58
2017-10-28T14:59:41.641Z,12.05
2017-10-28T15:02:08.612Z,13.50
2017-10-28T15:04:35.953Z,12.48
2017-10-28T15:07:02.801Z,14.50
2017-10-28T15:09:29.597Z,13.77
2017-10-28T15:11:59.127Z,15.23
2017-10-28T15:14:27.444Z,14.35
2017-10-28T15:16:58.241Z,14.65
2017-10-28T15:19:25.593Z,13.95
2017-10-28T15:21:52.265Z,13.93
2017-10-28T15:24:21.723Z,16.17
2017-10-28T15:26:49.242Z,15.90
2017-10-28T15:29:17.524Z,15.68
2017-10-28T15:31:44.260Z,15.60
2017-10-28T15:34:10.858Z,16.73
2017-10-28T15:36:37.575Z,15.52
2017-10-28T15:39:07.276Z,15.82
2017-10-28T15:41:34.621Z,17.80
2017-10-28T15:44:01.373Z,18.10
2017-10-28T15:46:27.808Z,17.37
2017-10-28T15:48:55.887Z,18.87
2017-10-28T15:51:24.854Z,18.92
2017-10-28T15:54:00.626Z,18.37
2017-10-28T15:56:27.864Z,20.70
2017-10-28T15:58:54.542Z,18.92
2017-10-28T16:01:21.248Z,19.23
2017-10-28T16:03:48.868Z,19.73
2017-10-28T16:06:16.479Z,21.42
2017-10-28T16:08:46.734Z,20.12
2017-10-28T16:11:12.919Z,20.05
2017-10-28T16:13:39.153Z,19.48
2017-10-28T16:16:05.243Z,19.00
2017-10-28T16:18:31.364Z,21.37
2017-10-28T16:20:58.201Z,21.62
2017-10-28T16:23:25.910Z,21.23
2017-10-28T16:25:52.084Z,22.23
2017-10-28T16:28:31.527Z,21.92
2017-10-28T16:30:57.857Z,19.27
2017-10-28T16:33:23.937Z,21.80
2017-10-28T16:35:50.054Z,22.33
2017-10-28T16:38:16.144Z,21.17
2017-10-28T16:40:42.255Z,20.83
2017-10-28T16:43:08.348Z,21.48
2017-10-28T16:45:34.437Z,21.05
2017-10-28T16:48:00.546Z,20.65
2017-10-28T16:50:26.672Z,19.87
2017-10-28T16:52:52.763Z,21.12
2017-10-28T16:55:18.942Z,20.95
2017-10-28T16:57:45.197Z,19.48
2017-10-28T17:00:11.337Z,19.83
2017-10-28T17:02:37.431Z,20.10
2017-10-28T17:05:03.549Z,20.42
2017-10-28T17:07:30.005Z,20.33
2017-10-28T17:09:56.173Z,18.02
2017-10-28T17:12:22.293Z,21.50
2017-10-28T17:14:48.398Z,21.45
2017-10-28T17:17:14.481Z,20.17
2017-10-28T17:19:40.570Z,19.67
2017-10-28T17:22:06.671Z,20.62
2017-10-28T17:24:32.788Z,17.50
2017-10-28T17:26:59.153Z,20.37
2017-10-28T17:29:25.501Z,19.33
2017-10-28T17:32:01.596Z,20.33
2017-10-28T17:34:28.420Z,18.02
2017-10-28T17:36:55.324Z,18.02
2017-10-28T17:39:21.502Z,19.33
2017-10-28T17:41:47.644Z,17.77
2017-10-28T17:44:13.791Z,18.87
2017-10-28T17:46:39.884Z,18.70
2017-10-28T17:49:06.010Z,18.70
2017-10-28T17:51:32.843Z,17.92
2017-10-28T17:53:58.937Z,18.35
2017-10-28T17:56:25.023Z,18.20
2017-10-28T17:58:51.128Z,18.02
2017-10-28T18:01:25.273Z,17.67
2017-10-28T18:04:00.121Z,19.20
2017-10-28T18:06:26.236Z,18.52
2017-10-28T18:08:53.101Z,18.23
2017-10-28T18:11:21.409Z,18.12
2017-10-28T18:13:47.675Z,19.00
2017-10-28T18:16:13.761Z,19.67
2017-10-28T18:18:39.841Z,19.73
2017-10-28T18:21:05.962Z,17.90
2017-10-28T18:23:32.817Z,18.70
2017-10-28T18:25:59.662Z,18.33
2017-10-28T18:28:25.753Z,19.70
2017-10-28T18:30:52.796Z,18.60
2017-10-28T18:33:19.636Z,19.75
2017-10-28T18:35:45.781Z,19.62
2017-10-28T18:38:11.889Z,20.15
2017-10-28T18:40:37.990Z,21.12
2017-10-28T18:43:05.477Z,19.90
2017-10-28T18:45:32.969Z,17.98
2017-10-28T18:47:59.055Z,19.75
2017-10-28T18:50:26.292Z,19.05
2017-10-28T18:52:52.527Z,18.92
2017-10-28T18:55:19.428Z,19.17
2017-10-28T18:57:45.515Z,18.87
2017-10-28T19:00:11.609Z,20.35
2017-10-28T19:02:37.747Z,18.23
2017-10-28T19:05:03.931Z,20.35
2017-10-28T19:07:30.021Z,19.70
2017-10-28T19:09:56.863Z,20.20
2017-10-28T19:12:23.762Z,19.70
2017-10-28T19:14:49.832Z,18.92
2017-10-28T19:17:15.944Z,18.42
2017-10-28T19:19:42.046Z,14.70
2017-10-28T19:22:08.150Z,19.20
2017-10-28T19:24:34.273Z,19.83
2017-10-28T19:27:00.364Z,19.20
2017-10-28T19:29:26.499Z,17.20
2017-10-28T19:31:52.612Z,20.90
2017-10-28T19:34:18.727Z,18.12
2017-10-28T19:36:45.440Z,18.90
2017-10-28T19:39:12.312Z,18.17
2017-10-28T19:41:38.456Z,20.10
2017-10-28T19:44:04.593Z,18.95
2017-10-28T19:46:31.445Z,17.45
2017-10-28T19:48:57.553Z,18.42
2017-10-28T19:51:24.475Z,18.65
2017-10-28T19:53:50.601Z,19.85
2017-10-28T19:56:16.780Z,19.33
2017-10-28T19:58:42.890Z,20.90
2017-10-28T20:01:09.084Z,19.90
2017-10-28T20:03:35.212Z,19.77
2017-10-28T20:06:02.152Z,19.90
2017-10-28T20:08:28.256Z,19.25
2017-10-28T20:10:54.368Z,18.83
2017-10-28T20:13:20.473Z,19.25
2017-10-28T20:15:47.346Z,20.80
2017-10-28T20:18:14.181Z,21.52
2017-10-28T20:20:40.307Z,18.12
2017-10-28T20:23:06.598Z,19.45
2017-10-28T20:25:32.701Z,21.40
2017-10-28T20:27:58.796Z,20.77
2017-10-28T20:30:24.898Z,21.83
2017-10-28T20:32:51.034Z,19.73
2017-10-28T20:35:17.179Z,20.35
2017-10-28T20:37:43.293Z,18.58
2017-10-28T20:40:12.137Z,18.77
2017-10-28T20:42:38.261Z,20.05
2017-10-28T20:45:04.402Z,19.55
2017-10-28T20:47:30.520Z,17.80
2017-10-28T20:49:56.653Z,20.52
2017-10-28T20:52:22.844Z,19.50
2017-10-28T20:54:48.956Z,19.27
2017-10-28T20:57:15.119Z,18.95
2017-10-28T20:59:41.244Z,16.92
2017-10-28T21:02:07.900Z,17.85
2017-10-28T21:04:34.026Z,16.92
2017-10-28T21:07:01.393Z,19.05
2017-10-28T21:09:28.232Z,18.67
2017-10-28T21:11:54.321Z,19.73
2017-10-28T21:14:20.480Z,18.83
2017-10-28T21:16:47.319Z,20.17
2017-10-28T21:19:13.430Z,20.70
2017-10-28T21:21:40.346Z,19.83
2017-10-28T21:24:06.655Z,18.40
2017-10-28T21:26:33.496Z,20.98
2017-10-28T21:28:59.634Z,20.00
2017-10-28T21:31:25.756Z,18.02
2017-10-28T21:33:51.871Z,20.20
2017-10-28T21:36:17.974Z,18.87
2017-10-28T21:38:44.105Z,18.08
2017-10-28T21:41:10.217Z,18.42
2017-10-28T21:43:36.351Z,17.48
2017-10-28T21:46:02.472Z,19.65
2017-10-28T21:48:28.657Z,18.98
2017-10-28T21:50:54.744Z,16.95
2017-10-28T21:53:20.882Z,16.75
2017-10-28T21:55:47.113Z,15.25
2017-10-28T21:58:13.205Z,15.17
2017-10-28T22:00:40.078Z,16.50
2017-10-28T22:03:06.931Z,15.00
2017-10-28T22:05:33.049Z,17.00
2017-10-28T22:07:59.153Z,15.73
2017-10-28T22:10:25.261Z,12.55
2017-10-28T22:12:51.386Z,16.55
2017-10-28T22:15:17.509Z,16.62
2017-10-28T22:17:43.622Z,17.00
2017-10-28T22:20:10.465Z,16.27
2017-10-28T22:22:37.354Z,16.35
2017-10-28T22:25:03.463Z,15.35
2017-10-28T22:27:29.561Z,14.45
2017-10-28T22:29:56.434Z,14.25
2017-10-28T22:32:22.580Z,13.93
2017-10-28T22:34:48.753Z,15.70
2017-10-28T22:37:14.900Z,15.57
2017-10-28T22:39:41.004Z,15.10
2017-10-28T22:42:07.251Z,15.23
2017-10-28T22:44:33.403Z,14.68
2017-10-28T22:46:59.509Z,15.10
2017-10-28T22:49:25.612Z,17.85
2017-10-28T22:51:54.787Z,15.80
2017-10-28T22:54:21.668Z,11.50
2017-10-28T22:56:47.822Z,14.65
2017-10-28T22:59:13.977Z,15.13
2017-10-28T23:01:40.121Z,16.60
2017-10-28T23:04:06.249Z,18.80
2017-10-28T23:06:32.374Z,19.10
2017-10-28T23:08:58.483Z,17.12
2017-10-28T23:11:24.618Z,17.48
2017-10-28T23:13:51.467Z,19.00
2017-10-28T23:16:17.603Z,18.97
2017-10-28T23:18:43.779Z,17.60
2017-10-28T23:21:09.900Z,18.33
2017-10-28T23:23:36.000Z,16.30
2017-10-28T23:26:02.159Z,17.23
2017-10-28T23:28:28.269Z,17.90
2017-10-28T23:30:54.383Z,16.70
2017-10-28T23:33:20.486Z,17.10
2017-10-28T23:35:46.593Z,18.40
2017-10-28T23:38:12.692Z,18.23
2017-10-28T23:40:38.813Z,16.10
2017-10-28T23:43:04.914Z,19.65
2017-10-28T23:45:31.010Z,17.20
2017-10-28T23:47:57.101Z,15.65
2017-10-28T23:50:23.270Z,16.00
2017-10-28T23:52:49.370Z,15.50
2017-10-28T23:55:15.484Z,17.67
2017-10-28T23:57:42.354Z,15.32
